M I D A S
Marine Information and Data Acquisition System
Tripno 1521 of the Zeeleeuw from 2008-07-17 06:24:38 to 2008-07-17 15:20:31
Back to CruiseResearch ActivitiesStationsMapUnderway DataData graphs

EquipmentUnitsComments
TimeDGPSUTC
LatitudeDGPSDM.mWGS84
LongitudeDGPSDM.mWGS84
SpeedMeteo Stationm/sRelative wind speed
DirectionMeteo StationdegRelative wind direction
TemperatureMeteo Stationdeg CelciusAir temperature
PressureMeteo StationPaAtmospheric pressure
HumidityMeteo Station%Relative humidity
Missing or incorrect values are displayed as -999
Metereological data collected by the RV Zeeleeuw from 2008-07-17 06:27:00 to 2008-07-17 15:22:41
Time Latitude Longitude Speed Direction Temperature Pressure Humidity
2008-07-17 06:28 51°13.637 2°55.996 -999 -999 -999 -999 -999
2008-07-17 06:29 51°13.645 2°55.954 -999 -999 -999 -999 -999
2008-07-17 06:30 51°13.661 2°55.9 -999 -999 -999 -999 -999
2008-07-17 06:31 51°13.686 2°55.815 -999 -999 -999 -999 -999
2008-07-17 06:32 51°13.701 2°55.741 -999 -999 -999 -999 -999
2008-07-17 06:33 51°13.718 2°55.752 -999 -999 -999 -999 -999
2008-07-17 06:34 51°13.722 2°55.75 -999 -999 -999 -999 -999
2008-07-17 06:35 51°13.735 2°55.734 -999 -999 -999 -999 -999
2008-07-17 06:36 51°13.823 2°55.643 -999 -999 -999 -999 -999
2008-07-17 06:37 51°13.952 2°55.537 -999 -999 -999 -999 -999
2008-07-17 06:38 51°14.083 2°55.435 7.4 278 -999 -999 -999
2008-07-17 06:39 51°14.209 2°55.322 8.6 284 15.1 101550 79
2008-07-17 06:40 51°14.313 2°55.156 7 279 15.3 101550 77
2008-07-17 06:41 51°14.392 2°54.939 8.9 335 15.4 101550 77
2008-07-17 06:42 51°14.394 2°54.632 9.7 279 15.6 101540 77
2008-07-17 06:43 51°14.31 2°54.327 10.8 349 15.6 101540 78
2008-07-17 06:44 51°14.215 2°54.021 10 349 15.6 101530 80
2008-07-17 06:45 51°14.116 2°53.712 10 346 15.4 101540 81
2008-07-17 06:46 51°14.015 2°53.403 10.4 351 15.4 101530 82
2008-07-17 06:47 51°13.915 2°53.092 11.1 348 15.4 101530 83
2008-07-17 06:48 51°13.813 2°52.782 10.1 352 15.3 101530 83
2008-07-17 06:49 51°13.725 2°52.464 10.2 351 15.1 101540 83
2008-07-17 06:50 51°13.648 2°52.153 8.9 350 15 101530 83
2008-07-17 06:51 51°13.58 2°51.978 6.3 357 15 101540 84
2008-07-17 06:52 51°13.537 2°51.855 6.1 356 15 101550 84
2008-07-17 06:53 51°13.51 2°51.742 6.1 278 15 101550 85
2008-07-17 06:54 51°13.487 2°51.614 6.8 348 15 101550 85
2008-07-17 06:55 51°13.462 2°51.476 5.7 354 14.9 101550 85
2008-07-17 06:56 51°13.43 2°51.38 4.9 7 14.9 101550 85
2008-07-17 06:57 51°13.402 2°51.328 4 19 14.9 101560 85
2008-07-17 06:58 51°13.378 2°51.292 4.1 22 15 101550 85
2008-07-17 06:59 51°13.355 2°51.259 3.1 15 15 101560 85
2008-07-17 07:00 51°13.333 2°51.227 3.5 13 14.9 101550 85
2008-07-17 07:01 51°13.303 2°51.174 4.1 2 15 101560 86
2008-07-17 07:02 51°13.221 2°50.955 7.9 283 15 101540 85
2008-07-17 07:03 51°13.114 2°50.664 8 285 14.9 101550 84
2008-07-17 07:04 51°13.012 2°50.358 8.5 283 14.9 101540 84
2008-07-17 07:05 51°12.897 2°50.061 7.6 280 15 101540 84
2008-07-17 07:06 51°12.78 2°49.767 7.2 279 14.9 101540 83
2008-07-17 07:07 51°12.664 2°49.474 7.1 279 15 101540 83
2008-07-17 07:08 51°12.547 2°49.179 7.5 282 15 101540 82
2008-07-17 07:09 51°12.432 2°48.881 7.7 283 15.1 101540 82
2008-07-17 07:10 51°12.346 2°48.564 8.3 282 15.1 101540 83
2008-07-17 07:11 51°12.27 2°48.238 8.2 343 15.1 101540 82
2008-07-17 07:12 51°12.193 2°47.913 8.3 280 15.2 101540 83
2008-07-17 07:13 51°12.123 2°47.582 8.9 283 15.2 101540 83
2008-07-17 07:14 51°12.056 2°47.252 9.6 285 15.2 101540 83
2008-07-17 07:15 51°11.98 2°46.926 8.5 279 15.2 101540 83
2008-07-17 07:16 51°11.9 2°46.603 9.7 279 15.2 101540 83
2008-07-17 07:17 51°11.828 2°46.277 9.7 280 15.2 101540 82
2008-07-17 07:18 51°11.758 2°45.949 10.4 278 15.2 101540 81
2008-07-17 07:19 51°11.69 2°45.619 9.3 277 15.2 101540 81
2008-07-17 07:20 51°11.621 2°45.29 9.6 282 15.2 101550 80
2008-07-17 07:21 51°11.54 2°44.966 9.2 283 15.3 101550 81
2008-07-17 07:22 51°11.459 2°44.641 10.1 279 15.3 101540 81
2008-07-17 07:23 51°11.378 2°44.317 10 279 15.3 101540 81
2008-07-17 07:24 51°11.296 2°43.995 9.9 279 15.3 101540 81
2008-07-17 07:25 51°11.208 2°43.677 9.3 285 15.3 101550 81
2008-07-17 07:26 51°11.123 2°43.358 9.7 278 15.3 101550 82
2008-07-17 07:27 51°11.072 2°43.063 8.3 342 15.3 101540 81
2008-07-17 07:28 51°11.057 2°42.868 7.4 279 15.4 101560 82
2008-07-17 07:29 51°11.06 2°42.716 7 284 15.4 101560 82
2008-07-17 07:30 51°11.069 2°42.57 7.8 279 15.4 101560 82
2008-07-17 07:31 51°11.075 2°42.418 7.7 337 15.4 101560 81
2008-07-17 07:32 51°11.078 2°42.271 7.2 280 15.4 101560 81
2008-07-17 07:33 51°11.07 2°42.177 2.6 278 15.3 101560 81
2008-07-17 07:34 51°11.057 2°42.143 5 360 15.3 101560 81
2008-07-17 07:35 51°11.043 2°42.12 4.7 4 15.3 101560 80
2008-07-17 07:36 51°11.028 2°42.102 5 12 15.3 101560 81
2008-07-17 07:37 51°11.013 2°42.085 5.8 11 15.4 101560 82
2008-07-17 07:38 51°10.976 2°42.053 4.1 4 15.4 101560 81
2008-07-17 07:39 51°10.896 2°41.948 6.3 356 15.3 101560 81
2008-07-17 07:40 51°10.788 2°41.769 9.3 350 15.4 101560 82
2008-07-17 07:41 51°10.676 2°41.574 7.5 349 15.4 101550 81
2008-07-17 07:42 51°10.565 2°41.375 8.2 349 15.4 101550 81
2008-07-17 07:43 51°10.452 2°41.178 8.7 278 15.4 101550 80
2008-07-17 07:44 51°10.345 2°40.972 7.8 282 15.3 101560 80
2008-07-17 07:45 51°10.248 2°40.756 8.4 277 15.4 101550 79
2008-07-17 07:46 51°10.168 2°40.523 8 280 15.4 101560 79
2008-07-17 07:47 51°10.102 2°40.323 7.6 278 15.4 101560 80
2008-07-17 07:48 51°10.074 2°40.165 8.8 280 15.3 101560 78
2008-07-17 07:49 51°10.146 2°40.124 4.4 278 15.3 101570 77
2008-07-17 07:50 51°10.159 2°40.303 1.8 279 15.4 101580 77
2008-07-17 07:51 51°10.16 2°40.564 1.5 300 15.4 101580 77
2008-07-17 07:52 51°10.162 2°40.834 2.8 277 15.5 101580 77
2008-07-17 07:53 51°10.154 2°41.105 2.8 279 15.7 101580 78
2008-07-17 07:54 51°10.143 2°41.378 2.2 277 15.7 101580 78
2008-07-17 07:55 51°10.13 2°41.652 1.9 283 15.8 101580 78
2008-07-17 07:56 51°10.123 2°41.925 2.4 285 15.7 101580 78
2008-07-17 07:57 51°10.109 2°42.174 1.9 281 15.7 101580 78
2008-07-17 07:58 51°10.089 2°42.411 1.4 80 15.7 101580 78
2008-07-17 07:59 51°10.092 2°42.627 2 280 15.7 101580 77
2008-07-17 08:00 51°10.11 2°42.72 4.3 81 15.7 101570 77
2008-07-17 08:01 51°10.105 2°42.723 2.3 83 15.7 101570 78
2008-07-17 08:02 51°10.097 2°42.724 4.4 77 15.9 101570 79
2008-07-17 08:03 51°10.087 2°42.725 3.3 76 15.9 101580 76
2008-07-17 08:04 51°10.077 2°42.728 4.9 43 15.8 101570 77
2008-07-17 08:05 51°10.065 2°42.73 4.8 42 15.8 101570 78
2008-07-17 08:06 51°10.053 2°42.73 4.6 37 15.7 101570 78
2008-07-17 08:07 51°10.033 2°42.743 4.1 77 15.5 101570 77
2008-07-17 08:08 51°10.035 2°42.816 3.9 278 15.5 101580 77
2008-07-17 08:09 51°10.137 2°42.851 8.5 280 15.6 101570 77
2008-07-17 08:10 51°10.275 2°42.752 11.7 278 15.7 101550 78
2008-07-17 08:11 51°10.338 2°42.466 12.5 280 15.7 101560 79
2008-07-17 08:12 51°10.359 2°42.143 11.5 280 15.6 101550 82
2008-07-17 08:13 51°10.368 2°41.814 11.3 286 15.7 101550 84
2008-07-17 08:14 51°10.371 2°41.483 11.6 280 15.6 101540 83
2008-07-17 08:15 51°10.368 2°41.149 12.1 280 15.6 101550 83
2008-07-17 08:16 51°10.365 2°40.815 11.9 280 15.5 101540 81
2008-07-17 08:17 51°10.364 2°40.48 12.9 282 15.5 101540 80
2008-07-17 08:18 51°10.361 2°40.145 12.3 281 15.6 101540 81
2008-07-17 08:19 51°10.338 2°39.812 13.9 284 15.6 101550 81
2008-07-17 08:20 51°10.317 2°39.478 13.5 283 15.6 101550 81
2008-07-17 08:21 51°10.294 2°39.143 13.1 281 15.6 101550 81
2008-07-17 08:22 51°10.274 2°38.808 13.6 279 15.6 101540 81
2008-07-17 08:23 51°10.26 2°38.472 12.8 279 15.5 101550 80
2008-07-17 08:24 51°10.241 2°38.136 13 285 15.5 101550 79
2008-07-17 08:25 51°10.226 2°37.798 13.6 281 15.5 101540 79
2008-07-17 08:26 51°10.216 2°37.459 13.6 280 15.5 101540 80
2008-07-17 08:27 51°10.23 2°37.129 14 279 15.5 101550 80
2008-07-17 08:28 51°10.311 2°36.833 11.5 280 15.5 101540 81
2008-07-17 08:29 51°10.465 2°36.671 9.6 280 15.5 101540 81
2008-07-17 08:30 51°10.65 2°36.691 7.3 278 15.4 101550 79
2008-07-17 08:31 51°10.838 2°36.714 8.2 278 15.4 101540 81
2008-07-17 08:32 51°11.026 2°36.748 7.9 279 15.4 101550 81
2008-07-17 08:33 51°11.215 2°36.776 8.2 283 15.5 101550 81
2008-07-17 08:34 51°11.402 2°36.815 8.8 282 15.5 101540 82
2008-07-17 08:35 51°11.591 2°36.848 7.5 277 15.5 101530 81
2008-07-17 08:36 51°11.779 2°36.881 7.1 279 15.4 101530 81
2008-07-17 08:37 51°11.967 2°36.925 11.1 277 15.5 101540 82
2008-07-17 08:38 51°12.155 2°36.966 8.1 281 15.4 101540 80
2008-07-17 08:39 51°12.343 2°37.006 7.3 283 15.4 101540 80
2008-07-17 08:40 51°12.532 2°37.044 10.1 278 15.4 101540 81
2008-07-17 08:41 51°12.721 2°37.082 7.5 278 15.4 101530 81
2008-07-17 08:42 51°12.91 2°37.119 7.8 282 15.4 101530 80
2008-07-17 08:43 51°13.099 2°37.157 9.7 281 15.4 101530 81
2008-07-17 08:44 51°13.29 2°37.157 10.8 281 15.4 101530 80
2008-07-17 08:45 51°13.48 2°37.142 10.7 281 15.4 101510 80
2008-07-17 08:46 51°13.674 2°37.11 12.5 283 15.4 101510 81
2008-07-17 08:47 51°13.869 2°37.071 8.1 282 15.5 101520 82
2008-07-17 08:48 51°14.062 2°37.035 10.3 283 15.5 101510 82
2008-07-17 08:49 51°14.253 2°37 11.9 282 15.4 101500 81
2008-07-17 08:50 51°14.443 2°36.983 8.3 281 15.4 101510 78
2008-07-17 08:51 51°14.635 2°36.971 9 278 15.4 101520 78
2008-07-17 08:52 51°14.827 2°36.961 11.2 278 15.4 101510 78
2008-07-17 08:53 51°15.022 2°36.945 12.3 308 15.4 101520 77
2008-07-17 08:54 51°15.216 2°36.919 11.5 301 15.4 101520 76
2008-07-17 08:55 51°15.409 2°36.9 12.2 299 15.5 101510 77
2008-07-17 08:56 51°15.602 2°36.896 11.2 307 15.4 101510 77
2008-07-17 08:57 51°15.797 2°36.888 9.3 301 15.4 101500 77
2008-07-17 08:58 51°15.991 2°36.867 12.6 307 15.4 101500 77
2008-07-17 08:59 51°16.164 2°36.836 9.8 307 15.5 101500 78
2008-07-17 09:00 51°16.259 2°36.822 9.9 302 15.5 101510 77
2008-07-17 09:01 51°16.32 2°36.829 8.7 306 15.5 101520 77
2008-07-17 09:02 51°16.38 2°36.837 10.8 305 15.6 101520 77
2008-07-17 09:03 51°16.46 2°36.844 7.3 304 15.7 101520 77
2008-07-17 09:04 51°16.526 2°36.816 6.9 307 15.7 101520 77
2008-07-17 09:05 51°16.568 2°36.795 6.2 301 15.7 101520 76
2008-07-17 09:06 51°16.578 2°36.77 7.6 304 15.8 101520 77
2008-07-17 09:07 51°16.582 2°36.749 8.3 302 15.7 101510 76
2008-07-17 09:08 51°16.581 2°36.733 8.2 301 15.7 101510 76
2008-07-17 09:09 51°16.578 2°36.72 8.5 301 15.7 101510 77
2008-07-17 09:10 51°16.573 2°36.711 7.7 303 15.8 101510 76
2008-07-17 09:11 51°16.566 2°36.705 7.8 302 15.8 101510 77
2008-07-17 09:12 51°16.561 2°36.699 7.8 302 16 101510 77
2008-07-17 09:13 51°16.602 2°36.614 11.1 303 16 101500 76
2008-07-17 09:14 51°16.689 2°36.433 12.4 305 15.9 101480 75
2008-07-17 09:15 51°16.817 2°36.251 12.3 303 15.8 101480 75
2008-07-17 09:16 51°16.963 2°36.039 12.9 308 15.7 101480 76
2008-07-17 09:17 51°17.116 2°35.837 11.2 302 15.7 101480 76
2008-07-17 09:18 51°17.271 2°35.642 12.8 301 15.6 101480 75
2008-07-17 09:19 51°17.423 2°35.443 10.7 307 15.6 101480 74
2008-07-17 09:20 51°17.576 2°35.246 9.9 302 15.5 101480 73
2008-07-17 09:21 51°17.735 2°35.06 12.7 304 15.5 101490 74
2008-07-17 09:22 51°17.866 2°34.817 12.2 306 15.5 101480 74
2008-07-17 09:23 51°17.988 2°34.558 13.1 303 15.6 101490 75
2008-07-17 09:24 51°18.108 2°34.297 11 301 15.6 101480 74
2008-07-17 09:25 51°18.222 2°34.026 11.8 299 15.6 101490 75
2008-07-17 09:26 51°18.334 2°33.759 13.3 307 15.6 101480 74
2008-07-17 09:27 51°18.441 2°33.486 13.5 309 15.6 101480 75
2008-07-17 09:28 51°18.556 2°33.222 10.4 304 15.6 101480 74
2008-07-17 09:29 51°18.675 2°32.96 13 305 15.7 101480 75
2008-07-17 09:30 51°18.787 2°32.693 10.9 303 15.7 101480 74
2008-07-17 09:31 51°18.897 2°32.42 13 303 15.7 101460 73
2008-07-17 09:32 51°19.019 2°32.162 10.8 306 15.7 101470 74
2008-07-17 09:33 51°19.138 2°31.903 12.4 305 15.7 101470 73
2008-07-17 09:34 51°19.257 2°31.643 13 306 15.6 101480 72
2008-07-17 09:35 51°19.377 2°31.384 12.7 304 15.7 101470 73
2008-07-17 09:36 51°19.501 2°31.131 12.5 305 15.7 101470 73
2008-07-17 09:37 51°19.626 2°30.884 11 300 15.8 101470 74
2008-07-17 09:38 51°19.756 2°30.64 10.8 301 15.7 101480 73
2008-07-17 09:39 51°19.881 2°30.405 11 303 15.7 101470 73
2008-07-17 09:40 51°19.942 2°30.259 8.9 304 15.7 101480 73
2008-07-17 09:41 51°19.955 2°30.177 5.9 303 15.7 101480 72
2008-07-17 09:42 51°19.967 2°30.129 7.9 307 15.7 101480 73
2008-07-17 09:43 51°19.98 2°30.087 6.6 302 15.7 101470 73
2008-07-17 09:44 51°19.99 2°30.048 6.8 302 15.8 101480 73
2008-07-17 09:45 51°19.993 2°30.039 6.5 306 15.8 101490 73
2008-07-17 09:46 51°19.997 2°30.042 6.7 301 15.9 101480 73
2008-07-17 09:47 51°20 2°30.052 5.3 302 15.9 101480 73
2008-07-17 09:48 51°20.006 2°30.067 5.2 305 15.9 101480 72
2008-07-17 09:49 51°20.011 2°30.086 6.1 300 15.9 101480 71
2008-07-17 09:50 51°20.016 2°30.107 4.8 302 16.1 101480 72
2008-07-17 09:51 51°20.021 2°30.129 4.3 301 16.2 101470 73
2008-07-17 09:52 51°20.033 2°30.148 7.5 304 16.3 101480 72
2008-07-17 09:53 51°20.104 2°30.194 2.3 53 16.3 101470 72
2008-07-17 09:54 51°20.187 2°30.39 1.4 309 16.3 101470 71
2008-07-17 09:55 51°20.288 2°30.607 1.9 304 16.4 101470 72
2008-07-17 09:56 51°20.402 2°30.85 2.3 303 16.6 101470 72
2008-07-17 09:57 51°20.527 2°31.109 1.8 301 16.6 101470 71
2008-07-17 09:58 51°20.656 2°31.361 2.5 307 16.7 101470 70
2008-07-17 09:59 51°20.763 2°31.635 1 305 16.8 101470 71
2008-07-17 10:00 51°20.854 2°31.925 0.9 345 16.8 101460 70
2008-07-17 10:01 51°20.944 2°32.216 1.2 344 16.8 101470 69
2008-07-17 10:02 51°21.035 2°32.502 1.1 350 16.8 101470 70
2008-07-17 10:03 51°21.128 2°32.785 0.9 334 16.8 101480 70
2008-07-17 10:04 51°21.218 2°33.072 0.7 12 16.8 101470 70
2008-07-17 10:05 51°21.31 2°33.36 0.8 358 16.8 101470 70
2008-07-17 10:06 51°21.408 2°33.647 1.3 348 16.7 101460 69
2008-07-17 10:07 51°21.503 2°33.939 1 352 16.6 101460 69
2008-07-17 10:08 51°21.599 2°34.233 0.8 338 16.5 101470 69
2008-07-17 10:09 51°21.696 2°34.527 0.7 2 16.4 101470 69
2008-07-17 10:10 51°21.791 2°34.822 0.6 352 16.4 101460 69
2008-07-17 10:11 51°21.886 2°35.117 0.5 13 16.5 101460 70
2008-07-17 10:12 51°21.978 2°35.415 0.5 4 16.6 101460 70
2008-07-17 10:13 51°22.072 2°35.711 0.5 343 16.8 101460 70
2008-07-17 10:14 51°22.169 2°36.006 0.5 359 16.8 101460 69
2008-07-17 10:15 51°22.263 2°36.305 1.5 6 16.8 101460 69
2008-07-17 10:16 51°22.253 2°36.635 3.6 9 16.8 101450 69
2008-07-17 10:17 51°22.244 2°36.972 3.3 7 16.5 101460 70
2008-07-17 10:18 51°22.242 2°37.308 3.6 1 16.3 101450 71
2008-07-17 10:19 51°22.237 2°37.645 3.4 8 16.1 101450 71
2008-07-17 10:20 51°22.293 2°37.942 2.1 305 16 101460 71
2008-07-17 10:21 51°22.424 2°38.196 1 302 16.1 101450 72
2008-07-17 10:22 51°22.524 2°38.487 0.5 304 16.3 101460 72
2008-07-17 10:23 51°22.626 2°38.781 0.9 302 16.5 101460 72
2008-07-17 10:24 51°22.723 2°39.079 0.2 334 16.7 101450 72
2008-07-17 10:25 51°22.821 2°39.376 0.6 337 16.9 101450 71
2008-07-17 10:26 51°22.918 2°39.673 1.7 308 17.1 101450 70
2008-07-17 10:27 51°23.019 2°39.969 1.6 301 17.3 101450 70
2008-07-17 10:28 51°23.116 2°40.267 1.5 303 17.5 101450 69
2008-07-17 10:29 51°23.215 2°40.565 0.7 307 17.5 101450 68
2008-07-17 10:30 51°23.316 2°40.86 0.7 303 17.5 101440 68
2008-07-17 10:31 51°23.414 2°41.158 0.9 301 17.6 101450 67
2008-07-17 10:32 51°23.514 2°41.456 1.1 307 17.6 101440 67
2008-07-17 10:33 51°23.614 2°41.754 0.6 303 17.7 101450 67
2008-07-17 10:34 51°23.714 2°42.053 0.3 326 17.7 101450 67
2008-07-17 10:35 51°23.814 2°42.354 0.5 27 17.7 101450 66
2008-07-17 10:36 51°23.918 2°42.654 0.2 10 17.7 101450 67
2008-07-17 10:37 51°24.025 2°42.95 0.9 302 17.9 101450 67
2008-07-17 10:38 51°24.128 2°43.251 1 303 18 101450 67
2008-07-17 10:39 51°24.234 2°43.548 0.8 308 18.1 101450 67
2008-07-17 10:40 51°24.336 2°43.85 0.5 307 18.2 101440 66
2008-07-17 10:41 51°24.44 2°44.148 0.4 307 18.3 101440 66
2008-07-17 10:42 51°24.541 2°44.452 0.8 306 18.3 101440 66
2008-07-17 10:43 51°24.636 2°44.76 1.1 304 18.4 101440 66
2008-07-17 10:44 51°24.734 2°45.064 1.1 304 18.5 101440 67
2008-07-17 10:45 51°24.834 2°45.365 1.5 307 18.5 101430 66
2008-07-17 10:46 51°24.933 2°45.669 1.3 310 18.5 101430 66
2008-07-17 10:47 51°25.031 2°45.975 0.9 303 18.3 101430 66
2008-07-17 10:48 51°25.126 2°46.284 1.1 304 18.2 101430 66
2008-07-17 10:49 51°25.224 2°46.588 0.5 300 18.2 101430 66
2008-07-17 10:50 51°25.323 2°46.893 0.8 303 18.2 101430 66
2008-07-17 10:51 51°25.425 2°47.201 0.6 302 18.2 101420 66
2008-07-17 10:52 51°25.524 2°47.51 0.9 57 18.1 101420 66
2008-07-17 10:53 51°25.617 2°47.817 0.5 305 18 101420 66
2008-07-17 10:54 51°25.719 2°48.102 3.6 51 18 101420 66
2008-07-17 10:55 51°25.803 2°48.253 4 304 17.8 101410 66
2008-07-17 10:56 51°25.868 2°48.323 5.9 309 17.4 101410 67
2008-07-17 10:57 51°25.921 2°48.375 6.5 60 17.1 101410 68
2008-07-17 10:58 51°25.968 2°48.432 5.4 57 16.7 101400 69
2008-07-17 10:59 51°25.996 2°48.478 8.2 58 16.5 101400 70
2008-07-17 11:00 51°26.009 2°48.514 6.2 84 16.3 101400 70
2008-07-17 11:01 51°26.02 2°48.548 4.4 303 16.2 101400 71
2008-07-17 11:02 51°26.031 2°48.582 5.1 301 16.2 101410 72
2008-07-17 11:03 51°26.04 2°48.615 6.6 301 16.2 101400 72
2008-07-17 11:04 51°26.051 2°48.651 8.7 283 16.4 101400 73
2008-07-17 11:05 51°26.061 2°48.688 6 301 16.4 101400 73
2008-07-17 11:06 51°26.092 2°48.719 6 56 16.6 101400 73
2008-07-17 11:07 51°26.151 2°48.877 3.3 36 16.4 101400 72
2008-07-17 11:08 51°26.187 2°49.171 1.9 21 16.3 101400 70
2008-07-17 11:09 51°26.232 2°49.511 1.5 358 16.2 101400 71
2008-07-17 11:10 51°26.271 2°49.858 1.7 19 16.1 101400 71
2008-07-17 11:11 51°26.319 2°50.201 1.4 26 16.1 101390 73
2008-07-17 11:12 51°26.37 2°50.545 0.9 7 16.1 101390 72
2008-07-17 11:13 51°26.417 2°50.892 1.5 358 16.1 101390 72
2008-07-17 11:14 51°26.466 2°51.239 3.1 24 16.2 101400 73
2008-07-17 11:15 51°26.517 2°51.586 2.9 22 16.1 101400 71
2008-07-17 11:16 51°26.566 2°51.935 2.6 17 16.1 101390 72
2008-07-17 11:17 51°26.616 2°52.282 2.6 33 16.1 101390 73
2008-07-17 11:18 51°26.667 2°52.63 1.5 34 16 101390 73
2008-07-17 11:19 51°26.71 2°52.978 1.8 30 16.1 101390 73
2008-07-17 11:20 51°26.758 2°53.324 1.2 26 16 101390 73
2008-07-17 11:21 51°26.805 2°53.671 2.9 17 16 101390 73
2008-07-17 11:22 51°26.862 2°54.015 2.5 25 16.1 101390 73
2008-07-17 11:23 51°26.912 2°54.357 2.8 24 16 101390 72
2008-07-17 11:24 51°26.963 2°54.703 2.4 18 16 101390 73
2008-07-17 11:25 51°27.011 2°55.046 2.2 37 16 101390 73
2008-07-17 11:26 51°27.059 2°55.389 1.1 20 15.9 101390 73
2008-07-17 11:27 51°27.111 2°55.728 2.1 53 16 101390 71
2008-07-17 11:28 51°27.161 2°56.07 2 41 15.9 101390 71
2008-07-17 11:29 51°27.213 2°56.411 1.7 29 15.9 101390 70
2008-07-17 11:30 51°27.264 2°56.755 2.2 37 16.1 101390 73
2008-07-17 11:31 51°27.314 2°57.103 1 30 16.1 101390 72
2008-07-17 11:32 51°27.363 2°57.449 1.7 31 16.2 101390 74
2008-07-17 11:33 51°27.415 2°57.792 2.5 16 16.2 101390 73
2008-07-17 11:34 51°27.474 2°58.135 1.9 43 16.3 101390 73
2008-07-17 11:35 51°27.537 2°58.476 1.4 54 16.2 101390 72
2008-07-17 11:36 51°27.595 2°58.819 1.8 39 16.2 101380 73
2008-07-17 11:37 51°27.658 2°59.159 1.1 33 16.2 101380 74
2008-07-17 11:38 51°27.725 2°59.498 0.7 26 16.3 101390 73
2008-07-17 11:39 51°27.792 2°59.838 1.1 23 16.3 101390 73
2008-07-17 11:40 51°27.847 3°0.185 2.2 22 16.3 101380 72
2008-07-17 11:41 51°27.877 3°0.534 3.4 20 16.2 101370 72
2008-07-17 11:42 51°27.904 3°0.883 4 22 16.2 101380 72
2008-07-17 11:43 51°27.927 3°1.236 3 13 16.1 101370 71
2008-07-17 11:44 51°27.96 3°1.592 2.8 22 16.1 101370 72
2008-07-17 11:45 51°27.999 3°1.947 1.9 21 16.1 101380 72
2008-07-17 11:46 51°28.041 3°2.298 2.1 15 16.1 101370 73
2008-07-17 11:47 51°28.093 3°2.646 1.1 35 16.2 101370 72
2008-07-17 11:48 51°28.151 3°2.98 1 52 16.3 101370 72
2008-07-17 11:49 51°28.199 3°3.204 4.2 58 16.4 101370 72
2008-07-17 11:50 51°28.235 3°3.354 3.5 57 16.4 101370 71
2008-07-17 11:51 51°28.265 3°3.465 5.4 51 16.9 101360 70
2008-07-17 11:52 51°28.282 3°3.519 7.3 53 16.9 101360 68
2008-07-17 11:53 51°28.291 3°3.563 9 76 16.6 101360 69
2008-07-17 11:54 51°28.301 3°3.61 8.2 77 16.5 101360 70
2008-07-17 11:55 51°28.312 3°3.658 8.3 57 16.4 101350 70
2008-07-17 11:56 51°28.325 3°3.706 7.9 53 16.3 101350 69
2008-07-17 11:57 51°28.338 3°3.757 6.7 282 16.3 101350 71
2008-07-17 11:58 51°28.351 3°3.806 5.3 303 16.3 101350 72
2008-07-17 11:59 51°28.393 3°3.884 4.7 81 16.3 101350 72
2008-07-17 12:00 51°28.382 3°4.028 6.4 21 16.2 101360 69
2008-07-17 12:01 51°28.282 3°4.237 7.2 5 16.3 101350 71
2008-07-17 12:02 51°28.131 3°4.451 8.2 3 16.2 101340 73
2008-07-17 12:03 51°27.991 3°4.692 7.9 7 16.1 101340 72
2008-07-17 12:04 51°27.857 3°4.945 7.2 6 16 101340 72
2008-07-17 12:05 51°27.719 3°5.192 7.5 2 16 101340 72
2008-07-17 12:06 51°27.581 3°5.439 8 9 16 101340 72
2008-07-17 12:07 51°27.444 3°5.688 7.5 6 16 101340 71
2008-07-17 12:08 51°27.312 3°5.947 7.7 5 16 101330 71
2008-07-17 12:09 51°27.186 3°6.215 6.6 7 16 101330 72
2008-07-17 12:10 51°27.058 3°6.478 7.9 10 16 101330 71
2008-07-17 12:11 51°26.932 3°6.743 7.1 10 16 101340 72
2008-07-17 12:12 51°26.811 3°7.015 5.9 7 16.1 101340 73
2008-07-17 12:13 51°26.706 3°7.303 6.8 11 16.2 101330 74
2008-07-17 12:14 51°26.627 3°7.613 5.7 20 16.1 101330 72
2008-07-17 12:15 51°26.565 3°7.866 8 23 16.2 101330 72
2008-07-17 12:16 51°26.511 3°8.003 6.6 25 16.2 101330 72
2008-07-17 12:17 51°26.476 3°8.117 6.6 27 16.2 101320 71
2008-07-17 12:18 51°26.456 3°8.213 6.5 30 16.2 101320 70
2008-07-17 12:19 51°26.444 3°8.286 6.7 36 16.2 101320 71
2008-07-17 12:20 51°26.442 3°8.342 8.3 25 16.2 101320 71
2008-07-17 12:21 51°26.443 3°8.391 7 27 16.1 101320 70
2008-07-17 12:22 51°26.447 3°8.435 8 23 16.2 101310 71
2008-07-17 12:23 51°26.451 3°8.476 8.3 20 16.1 101320 71
2008-07-17 12:24 51°26.458 3°8.514 7.4 15 16.1 101320 71
2008-07-17 12:25 51°26.438 3°8.57 7.9 21 16.1 101300 71
2008-07-17 12:26 51°26.332 3°8.747 9.5 9 16.2 101310 73
2008-07-17 12:27 51°26.225 3°9.026 7.9 12 16.2 101310 72
2008-07-17 12:28 51°26.12 3°9.314 7.3 8 16.1 101310 71
2008-07-17 12:29 51°26.011 3°9.597 6.5 8 16.2 101310 72
2008-07-17 12:30 51°25.899 3°9.879 7.1 13 16.2 101310 72
2008-07-17 12:31 51°25.79 3°10.162 7 10 16.2 101310 73
2008-07-17 12:32 51°25.682 3°10.442 7.1 11 16.2 101310 72
2008-07-17 12:33 51°25.57 3°10.719 7.2 8 16.2 101310 72
2008-07-17 12:34 51°25.453 3°10.994 8.6 12 16.2 101300 71
2008-07-17 12:35 51°25.334 3°11.269 7.2 6 16.2 101310 72
2008-07-17 12:36 51°25.222 3°11.547 6.7 6 16.3 101300 73
2008-07-17 12:37 51°25.109 3°11.828 6 15 16.2 101310 72
2008-07-17 12:38 51°24.994 3°12.111 5.5 6 16.2 101310 72
2008-07-17 12:39 51°24.875 3°12.393 6.5 5 16.3 101310 73
2008-07-17 12:40 51°24.753 3°12.677 7.3 7 16.3 101300 73
2008-07-17 12:41 51°24.63 3°12.954 5.9 7 16.3 101300 73
2008-07-17 12:42 51°24.474 3°13.183 10.8 2 16.3 101300 73
2008-07-17 12:43 51°24.284 3°13.307 10.8 354 16.3 101280 73
2008-07-17 12:44 51°24.091 3°13.386 12.5 353 16.3 101290 75
2008-07-17 12:45 51°23.9 3°13.394 11.7 349 16.3 101270 74
2008-07-17 12:46 51°23.709 3°13.416 12.4 350 16.3 101280 72
2008-07-17 12:47 51°23.517 3°13.44 12.2 350 16.3 101280 72
2008-07-17 12:48 51°23.329 3°13.439 13.4 349 16.3 101270 70
2008-07-17 12:49 51°23.151 3°13.386 12.5 351 16.4 101280 73
2008-07-17 12:50 51°22.983 3°13.31 11.9 347 16.4 101280 73
2008-07-17 12:51 51°22.856 3°13.264 11.2 281 16.4 101280 72
2008-07-17 12:52 51°22.749 3°13.233 10 352 16.4 101280 73
2008-07-17 12:53 51°22.699 3°13.218 9.2 347 16.4 101290 73
2008-07-17 12:54 51°22.679 3°13.219 8.7 345 16.4 101290 73
2008-07-17 12:55 51°22.665 3°13.228 8.8 343 16.5 101290 74
2008-07-17 12:56 51°22.652 3°13.24 7.9 341 16.5 101290 74
2008-07-17 12:57 51°22.644 3°13.266 8.3 341 16.5 101290 72
2008-07-17 12:58 51°22.641 3°13.308 9.6 346 16.5 101290 73
2008-07-17 12:59 51°22.642 3°13.361 8.1 352 16.5 101280 72
2008-07-17 13:00 51°22.647 3°13.421 8 1 16.5 101290 73
2008-07-17 13:01 51°22.654 3°13.482 8.3 8 16.5 101280 73
2008-07-17 13:02 51°22.635 3°13.525 10.2 350 16.5 101280 75
2008-07-17 13:03 51°22.614 3°13.461 10.8 329 16.5 101280 72
2008-07-17 13:04 51°22.59 3°13.278 11.7 299 16.6 101270 72
2008-07-17 13:05 51°22.575 3°13.067 13.5 329 16.7 101270 73
2008-07-17 13:06 51°22.563 3°12.852 13.1 331 16.6 101250 72
2008-07-17 13:07 51°22.551 3°12.633 13.7 330 16.7 101260 72
2008-07-17 13:08 51°22.539 3°12.414 14.3 327 16.7 101250 72
2008-07-17 13:09 51°22.526 3°12.198 15 329 16.7 101260 72
2008-07-17 13:10 51°22.513 3°11.981 14.7 330 16.8 101260 72
2008-07-17 13:11 51°22.495 3°11.765 14.2 331 16.8 101240 73
2008-07-17 13:12 51°22.48 3°11.585 11.3 331 16.8 101260 72
2008-07-17 13:13 51°22.473 3°11.464 11.9 328 16.7 101270 72
2008-07-17 13:14 51°22.465 3°11.361 10.9 331 16.8 101270 72
2008-07-17 13:15 51°22.459 3°11.284 10.2 329 16.8 101270 72
2008-07-17 13:16 51°22.461 3°11.245 10.9 328 16.8 101270 71
2008-07-17 13:17 51°22.459 3°11.228 12 333 16.8 101270 70
2008-07-17 13:18 51°22.459 3°11.226 8.8 334 16.8 101280 72
2008-07-17 13:19 51°22.465 3°11.244 10.1 340 16.9 101280 72
2008-07-17 13:20 51°22.471 3°11.282 10 346 16.9 101270 72
2008-07-17 13:21 51°22.482 3°11.335 9.7 2 16.9 101260 72
2008-07-17 13:22 51°22.495 3°11.388 8.4 16 16.8 101270 73
2008-07-17 13:23 51°22.47 3°11.404 12.1 336 16.8 101270 72
2008-07-17 13:24 51°22.453 3°11.272 14.7 333 16.8 101260 71
2008-07-17 13:25 51°22.411 3°11.07 16.5 333 16.9 101250 71
2008-07-17 13:26 51°22.358 3°10.815 14.6 333 16.9 101250 72
2008-07-17 13:27 51°22.287 3°10.548 15.1 335 17 101260 73
2008-07-17 13:28 51°22.206 3°10.292 15.3 330 17 101250 73
2008-07-17 13:29 51°22.126 3°10.038 15.7 331 16.9 101240 72
2008-07-17 13:30 51°22.052 3°9.777 15.5 332 16.9 101250 72
2008-07-17 13:31 51°21.97 3°9.523 16.6 334 16.9 101240 72
2008-07-17 13:32 51°21.891 3°9.264 17.4 333 17 101240 71
2008-07-17 13:33 51°21.813 3°9.003 18.8 335 16.9 101230 71
2008-07-17 13:34 51°21.743 3°8.738 18.2 335 16.9 101240 70
2008-07-17 13:35 51°21.678 3°8.466 17.1 332 16.9 101240 71
2008-07-17 13:36 51°21.613 3°8.192 16.8 332 16.9 101250 71
2008-07-17 13:37 51°21.542 3°7.92 17.8 332 16.9 101240 72
2008-07-17 13:38 51°21.473 3°7.651 17.6 332 16.8 101230 68
2008-07-17 13:39 51°21.404 3°7.384 17.5 333 16.9 101240 68
2008-07-17 13:40 51°21.332 3°7.121 17.3 334 17 101240 70
2008-07-17 13:41 51°21.269 3°6.853 16.8 331 17 101240 71
2008-07-17 13:42 51°21.214 3°6.577 17.8 333 16.9 101230 69
2008-07-17 13:43 51°21.162 3°6.3 17.2 330 16.9 101220 69
2008-07-17 13:44 51°21.116 3°6.02 18.1 330 17 101240 72
2008-07-17 13:45 51°21.078 3°5.734 15 331 17.1 101230 73
2008-07-17 13:46 51°21.039 3°5.446 16.7 332 17 101240 72
2008-07-17 13:47 51°20.99 3°5.17 18.6 331 17 101230 71
2008-07-17 13:48 51°20.944 3°4.892 18.3 331 17 101220 70
2008-07-17 13:49 51°20.897 3°4.612 19.5 333 16.9 101220 68
2008-07-17 13:50 51°20.844 3°4.335 17.7 333 16.9 101230 68
2008-07-17 13:51 51°20.801 3°4.049 19.8 329 16.9 101230 70
2008-07-17 13:52 51°20.756 3°3.762 18 332 16.9 101220 71
2008-07-17 13:53 51°20.704 3°3.483 19.5 331 16.9 101220 72
2008-07-17 13:54 51°20.655 3°3.205 16.2 329 16.9 101220 72
2008-07-17 13:55 51°20.611 3°2.922 18.1 331 16.9 101220 73
2008-07-17 13:56 51°20.565 3°2.638 18.1 330 16.9 101220 73
2008-07-17 13:57 51°20.51 3°2.36 15.8 333 16.8 101210 72
2008-07-17 13:58 51°20.457 3°2.083 17.2 331 16.8 101230 73
2008-07-17 13:59 51°20.408 3°1.8 19 331 16.9 101220 73
2008-07-17 14:00 51°20.36 3°1.511 17.7 330 16.8 101210 74
2008-07-17 14:01 51°20.315 3°1.221 17.5 332 16.8 101200 72
2008-07-17 14:02 51°20.267 3°0.932 16 328 16.7 101210 72
2008-07-17 14:03 51°20.218 3°0.645 20.5 332 16.8 101230 73
2008-07-17 14:04 51°20.17 3°0.355 19.9 332 16.7 101230 73
2008-07-17 14:05 51°20.118 3°0.066 16.8 330 16.8 101240 74
2008-07-17 14:06 51°20.074 2°59.773 18.4 330 16.7 101200 73
2008-07-17 14:07 51°20.03 2°59.482 17.5 330 16.7 101210 73
2008-07-17 14:08 51°19.986 2°59.192 19.2 333 16.7 101200 74
2008-07-17 14:09 51°19.936 2°58.904 19.7 330 16.7 101210 74
2008-07-17 14:10 51°19.89 2°58.617 17.3 329 16.8 101210 74
2008-07-17 14:11 51°19.852 2°58.323 15.7 330 16.8 101220 76
2008-07-17 14:12 51°19.805 2°58.033 20.6 330 16.8 101210 76
2008-07-17 14:13 51°19.759 2°57.743 17.3 330 16.8 101210 75
2008-07-17 14:14 51°19.713 2°57.454 17 330 16.7 101200 74
2008-07-17 14:15 51°19.665 2°57.167 15.5 331 16.7 101200 74
2008-07-17 14:16 51°19.619 2°56.879 18 333 16.7 101200 74
2008-07-17 14:17 51°19.574 2°56.591 19 329 16.7 101210 74
2008-07-17 14:18 51°19.535 2°56.298 20.2 333 16.7 101210 75
2008-07-17 14:19 51°19.491 2°56.01 18.9 329 16.7 101210 76
2008-07-17 14:20 51°19.446 2°55.722 17.9 330 16.6 101200 77
2008-07-17 14:21 51°19.398 2°55.433 17.4 330 16.5 101210 76
2008-07-17 14:22 51°19.347 2°55.146 17.3 303 16.6 101210 78
2008-07-17 14:23 51°19.299 2°54.858 17.4 328 16.6 101190 78
2008-07-17 14:24 51°19.246 2°54.573 17.9 329 16.6 101220 78
2008-07-17 14:25 51°19.195 2°54.288 18.9 328 16.7 101220 79
2008-07-17 14:26 51°19.147 2°54.002 19.6 332 16.6 101210 78
2008-07-17 14:27 51°19.095 2°53.718 16.7 327 16.6 101200 78
2008-07-17 14:28 51°19.041 2°53.435 18.5 330 16.6 101220 78
2008-07-17 14:29 51°18.983 2°53.153 17.7 333 16.6 101190 78
2008-07-17 14:30 51°18.921 2°52.874 17.8 331 16.6 101180 78
2008-07-17 14:31 51°18.86 2°52.596 18.8 332 16.6 101190 76
2008-07-17 14:32 51°18.797 2°52.317 17.3 332 16.6 101190 77
2008-07-17 14:33 51°18.732 2°52.04 19.3 333 16.6 101190 77
2008-07-17 14:34 51°18.666 2°51.764 19.1 331 16.6 101200 77
2008-07-17 14:35 51°18.613 2°51.518 14.9 331 16.6 101190 76
2008-07-17 14:36 51°18.574 2°51.335 15.1 329 16.6 101200 77
2008-07-17 14:37 51°18.546 2°51.195 14.6 332 16.5 101210 76
2008-07-17 14:38 51°18.533 2°51.142 12 332 16.5 101220 77
2008-07-17 14:39 51°18.529 2°51.122 13.9 340 16.5 101240 76
2008-07-17 14:40 51°18.521 2°51.101 12.9 334 16.4 101230 76
2008-07-17 14:41 51°18.51 2°51.066 14.3 335 16.5 101230 76
2008-07-17 14:42 51°18.502 2°51.025 12.5 334 16.4 101220 77
2008-07-17 14:43 51°18.506 2°51.025 12.1 332 16.5 101230 78
2008-07-17 14:44 51°18.517 2°51.051 12.4 334 16.4 101230 78
2008-07-17 14:45 51°18.535 2°51.088 9.9 353 16.4 101230 77
2008-07-17 14:46 51°18.558 2°51.125 14.3 11 16.4 101210 77
2008-07-17 14:47 51°18.535 2°51.195 13.7 13 16.4 101220 77
2008-07-17 14:48 51°18.397 2°51.354 13.1 6 16.4 101210 77
2008-07-17 14:49 51°18.237 2°51.525 15 8 16.4 101210 76
2008-07-17 14:50 51°18.075 2°51.694 15.1 8 16.4 101210 77
2008-07-17 14:51 51°17.913 2°51.866 12.2 8 16.4 101210 77
2008-07-17 14:52 51°17.754 2°52.035 10.3 1 16.5 101210 79
2008-07-17 14:53 51°17.595 2°52.209 12.7 6 16.4 101200 76
2008-07-17 14:54 51°17.434 2°52.382 15.6 13 16.5 101210 76
2008-07-17 14:55 51°17.272 2°52.553 13.1 12 16.5 101220 76
2008-07-17 14:56 51°17.11 2°52.725 13.1 11 16.4 101210 74
2008-07-17 14:57 51°16.948 2°52.898 14.3 11 16.5 101220 73
2008-07-17 14:58 51°16.79 2°53.074 11.5 12 16.6 101210 74
2008-07-17 14:59 51°16.65 2°53.301 12.3 13 16.6 101220 74
2008-07-17 15:00 51°16.526 2°53.551 10 19 16.6 101220 72
2008-07-17 15:01 51°16.43 2°53.829 9.6 26 16.6 101230 72
2008-07-17 15:02 51°16.367 2°54.003 10.6 28 16.6 101230 72
2008-07-17 15:03 51°16.331 2°54.104 10.9 27 16.7 101230 72
2008-07-17 15:04 51°16.308 2°54.171 9.5 31 16.7 101230 71
2008-07-17 15:05 51°16.288 2°54.223 10.1 26 16.8 101240 72
2008-07-17 15:06 51°16.272 2°54.265 10.6 23 16.7 101230 71
2008-07-17 15:07 51°16.263 2°54.296 9.8 20 16.8 101230 73
2008-07-17 15:08 51°16.258 2°54.322 12.7 19 16.9 101230 74
2008-07-17 15:09 51°16.257 2°54.348 13.2 15 16.8 101230 73
2008-07-17 15:10 51°16.24 2°54.382 13.2 18 16.7 101220 72
2008-07-17 15:11 51°16.12 2°54.442 14.8 1 16.8 101220 73
2008-07-17 15:12 51°15.934 2°54.472 14.8 -999 16.7 101200 72
2008-07-17 15:13 51°15.743 2°54.504 14.8 356 16.8 101200 72
2008-07-17 15:14 51°15.553 2°54.524 15.7 359 16.7 101190 72
2008-07-17 15:15 51°15.363 2°54.545 16.1 357 16.7 101190 73
2008-07-17 15:16 51°15.173 2°54.571 15.1 357 16.7 101190 73
2008-07-17 15:17 51°14.984 2°54.621 14.4 1 16.7 101200 73
2008-07-17 15:18 51°14.794 2°54.677 12.5 4 16.8 101200 75
2008-07-17 15:19 51°14.615 2°54.795 13.1 3 16.7 101200 74
2008-07-17 15:20 51°14.446 2°54.95 10.8 9 16.7 101210 74
2008-07-17 15:21 51°14.312 2°55.17 9.1 13 16.7 101230 74
2008-07-17 15:22 51°14.185 2°55.359 7.5 7 16.7 101250 74